Time;durP1;ratioP1;P1;durP2;ratioP2;P2;SDS_P1;SDS_P2;PMS_P1;PMS_P2;Temp;Humidity;BMP_temperature;BMP_pressure;BME280_temperature;BME280_humidity;BME280_pressure;Samples;Min_cycle;Max_cycle;Signal;HPM_P1;HPM_P2
2023/10/25 00:00:39;;;;;;;;;1.00;0.33;;;;;18.57;100.00;99314.50;2094303;28;46441;-66
2023/10/25 00:01:39;;;;;;;;;0.00;0.00;;;;;18.54;100.00;99308.34;2099221;28;46326;-66
2023/10/25 00:02:40;;;;;;;;;0.33;0.33;;;;;18.56;100.00;99308.28;2079703;28;46894;-67
2023/10/25 00:03:40;;;;;;;;;1.00;1.00;;;;;18.64;100.00;99305.00;2100263;28;46357;-67
2023/10/25 00:04:40;;;;;;;;;0.33;0.33;;;;;18.59;100.00;99308.03;2092300;28;46265;-67
2023/10/25 00:05:42;;;;;;;;;1.00;1.00;;;;;18.66;100.00;99306.59;2085035;28;46730;-67
2023/10/25 00:06:42;;;;;;;;;2.75;1.50;;;;;18.62;100.00;99304.25;2074187;28;46710;-66
2023/10/25 00:07:42;;;;;;;;;0.00;0.00;;;;;18.71;100.00;99306.25;2085747;28;46352;-66
2023/10/25 00:08:43;;;;;;;;;2.00;1.00;;;;;18.57;100.00;99299.22;2091904;28;46830;-66
2023/10/25 00:09:43;;;;;;;;;0.00;0.00;;;;;18.68;100.00;99306.50;2078973;28;46493;-67
2023/10/25 00:10:43;;;;;;;;;1.33;1.00;;;;;18.65;100.00;99301.34;2072034;28;46738;-66
2023/10/25 00:11:44;;;;;;;;;2.00;1.00;;;;;18.67;100.00;99310.13;2062845;28;46408;-66
2023/10/25 00:12:44;;;;;;;;;1.00;1.00;;;;;18.57;100.00;99296.53;2092964;28;46402;-66
2023/10/25 00:13:44;;;;;;;;;0.00;0.00;;;;;18.56;100.00;99297.53;2088622;28;46301;-66
2023/10/25 00:14:45;;;;;;;;;1.00;1.00;;;;;18.64;100.00;99287.06;2101341;28;46439;-68
2023/10/25 00:15:45;;;;;;;;;1.00;1.00;;;;;18.67;100.00;99285.94;2082161;28;46316;-66
2023/10/25 00:16:45;;;;;;;;;1.00;1.00;;;;;18.66;100.00;99289.63;2059182;28;46510;-66
2023/10/25 00:17:46;;;;;;;;;0.00;0.00;;;;;18.66;100.00;99278.88;2099053;28;46243;-66
2023/10/25 00:18:46;;;;;;;;;0.67;0.00;;;;;18.66;100.00;99282.41;2088296;28;46322;-68
2023/10/25 00:19:47;;;;;;;;;0.00;0.00;;;;;18.64;100.00;99276.31;2102165;28;46583;-67
2023/10/25 00:20:47;;;;;;;;;0.00;0.00;;;;;18.60;100.00;99274.81;2092457;28;46293;-67
2023/10/25 00:21:47;;;;;;;;;1.33;0.00;;;;;18.60;100.00;99276.63;2106994;27;47228;-67
2023/10/25 00:22:48;;;;;;;;;0.00;0.00;;;;;18.58;100.00;99270.53;2104280;28;47659;-67
2023/10/25 00:23:48;;;;;;;;;0.00;0.00;;;;;18.59;100.00;99266.88;2089304;28;46375;-66
2023/10/25 00:24:48;;;;;;;;;0.00;0.00;;;;;18.60;100.00;99273.94;2095840;28;46284;-67
2023/10/25 00:25:50;;;;;;;;;1.00;1.00;;;;;18.59;100.00;99272.25;2098228;28;46782;-66
2023/10/25 00:26:50;;;;;;;;;0.00;0.00;;;;;18.57;100.00;99272.38;2080700;28;46421;-66
2023/10/25 00:27:51;;;;;;;;;0.00;0.00;;;;;18.57;100.00;99272.38;2062232;28;46642;-66
2023/10/25 00:28:51;;;;;;;;;0.00;0.00;;;;;18.58;100.00;99265.16;2065910;28;46740;-67
2023/10/25 00:29:51;;;;;;;;;2.00;2.00;;;;;18.56;100.00;99262.59;2099119;28;47022;-66
2023/10/25 00:30:52;;;;;;;;;0.67;0.67;;;;;18.55;100.00;99258.19;2095375;28;46324;-66
2023/10/25 00:31:52;;;;;;;;;0.00;0.00;;;;;18.50;100.00;99255.84;2063198;28;46658;-66
2023/10/25 00:32:52;;;;;;;;;0.00;0.00;;;;;18.50;100.00;99263.06;2069925;28;46300;-66
2023/10/25 00:33:54;;;;;;;;;0.00;0.00;;;;;18.41;100.00;99269.13;2054212;28;46494;-66
2023/10/25 00:34:54;;;;;;;;;0.00;0.00;;;;;18.46;100.00;99270.50;2091083;28;46574;-67
2023/10/25 00:35:55;;;;;;;;;1.00;1.00;;;;;18.46;100.00;99264.28;2103983;27;46285;-66
2023/10/25 00:36:55;;;;;;;;;1.00;1.00;;;;;18.47;100.00;99272.22;2104821;28;46596;-66
2023/10/25 00:37:55;;;;;;;;;2.33;1.00;;;;;18.48;100.00;99273.06;2103507;27;46699;-66
2023/10/25 00:38:56;;;;;;;;;0.00;0.00;;;;;18.50;100.00;99274.66;2103579;28;46312;-66
2023/10/25 00:39:57;;;;;;;;;0.33;0.33;;;;;18.43;100.00;99283.31;2095415;28;46170;-66
2023/10/25 00:40:57;;;;;;;;;1.75;1.75;;;;;18.48;100.00;99281.97;2095550;28;46032;-67
2023/10/25 00:41:57;;;;;;;;;1.33;1.33;;;;;18.60;100.00;99277.50;2103363;28;46733;-66
2023/10/25 00:43:16;;;;;;;;;5.67;4.67;;;;;18.56;100.00;99275.19;2105050;27;46998;-67
2023/10/25 00:44:16;;;;;;;;;6.00;6.00;;;;;18.57;100.00;99269.69;2095345;28;46574;-67
2023/10/25 00:45:16;;;;;;;;;2.00;2.00;;;;;18.54;100.00;99268.06;2091726;28;46217;-67
2023/10/25 00:46:23;;;;;;;;;9.25;9.25;;;;;18.53;100.00;99273.56;2100732;28;46464;-67
2023/10/25 00:47:24;;;;;;;;;14.80;14.20;;;;;18.51;100.00;99256.69;2111014;27;46356;-67
2023/10/25 00:48:25;;;;;;;;;9.00;6.75;;;;;18.53;100.00;99246.69;2112361;27;47807;-68
2023/10/25 00:49:26;;;;;;;;;15.80;15.00;;;;;18.50;100.00;99241.56;2105921;27;46583;-67
2023/10/25 00:50:27;;;;;;;;;12.80;12.40;;;;;18.50;100.00;99245.09;2094805;28;46576;-67
2023/10/25 00:51:29;;;;;;;;;13.50;13.25;;;;;18.61;100.00;99241.59;2068068;28;46367;-67
2023/10/25 00:52:30;;;;;;;;;15.80;15.80;;;;;18.63;100.00;99245.00;2085060;27;46769;-67
2023/10/25 00:53:33;;;;;;;;;11.50;11.00;;;;;18.69;100.00;99246.41;2100670;28;46696;-66
2023/10/25 00:54:35;;;;;;;;;5.75;5.75;;;;;18.62;100.00;99245.13;2103679;27;46937;-67
2023/10/25 00:55:36;;;;;;;;;6.50;6.50;;;;;18.54;100.00;99246.56;2103723;27;46602;-66
2023/10/25 00:56:37;;;;;;;;;8.00;8.00;;;;;18.67;100.00;99238.44;2103555;28;46257;-66
2023/10/25 00:57:37;;;;;;;;;6.67;5.00;;;;;18.63;100.00;99239.63;2105844;27;46450;-66
2023/10/25 00:58:40;;;;;;;;;4.00;4.00;;;;;18.58;100.00;99251.72;2102930;28;45609;-66
2023/10/25 00:59:41;;;;;;;;;6.25;5.25;;;;;18.66;100.00;99246.63;2093791;28;46345;-66
2023/10/25 01:00:42;;;;;;;;;0.67;0.67;;;;;18.61;100.00;99243.41;2105049;27;46667;-67
2023/10/25 01:01:43;;;;;;;;;6.67;5.00;;;;;18.63;100.00;99238.78;2107571;27;46396;-64
2023/10/25 01:02:43;;;;;;;;;2.50;2.25;;;;;18.61;100.00;99238.91;2083850;28;46435;-66
2023/10/25 01:03:43;;;;;;;;;3.00;3.00;;;;;18.53;100.00;99235.94;2082626;28;46479;-66
2023/10/25 01:04:44;;;;;;;;;5.33;3.67;;;;;18.46;100.00;99230.22;2112560;27;46255;-66
2023/10/25 01:05:44;;;;;;;;;2.00;2.00;;;;;18.43;100.00;99222.41;2109796;27;46428;-67
2023/10/25 01:06:44;;;;;;;;;2.00;1.00;;;;;18.59;100.00;99229.25;2104023;28;46545;-65
2023/10/25 01:07:45;;;;;;;;;0.00;0.00;;;;;18.60;100.00;99228.28;2103234;28;46206;-68
2023/10/25 01:08:45;;;;;;;;;4.00;1.00;;;;;18.45;100.00;99220.44;2110354;27;46278;-65
2023/10/25 01:09:47;;;;;;;;;0.00;0.00;;;;;18.46;100.00;99219.47;2087545;27;46897;-66
2023/10/25 01:10:52;;;;;;;;;0.00;0.00;;;;;18.43;100.00;99216.16;2083478;28;46570;-66
2023/10/25 01:11:52;;;;;;;;;0.00;0.00;;;;;18.38;100.00;99211.13;2083549;28;46524;-66
2023/10/25 01:12:52;;;;;;;;;0.00;0.00;;;;;18.26;100.00;99212.09;2055073;28;46174;-67
2023/10/25 01:13:53;;;;;;;;;1.00;1.00;;;;;18.34;100.00;99198.94;2079925;28;46724;-66
2023/10/25 01:14:53;;;;;;;;;0.00;0.00;;;;;18.26;100.00;99197.81;2076772;28;46318;-66
2023/10/25 01:15:53;;;;;;;;;2.33;1.00;;;;;18.19;100.00;99202.81;2070965;28;46635;-66
2023/10/25 01:16:54;;;;;;;;;1.00;1.00;;;;;18.30;100.00;99188.56;2076052;28;46756;-66
2023/10/25 01:17:54;;;;;;;;;0.33;0.33;;;;;18.21;100.00;99185.59;2065920;28;46596;-65
2023/10/25 01:18:54;;;;;;;;;2.67;1.33;;;;;18.29;100.00;99176.06;2082620;28;46302;-67
2023/10/25 01:19:54;;;;;;;;;0.00;0.00;;;;;18.30;100.00;99181.34;2078956;28;46246;-66
2023/10/25 01:20:55;;;;;;;;;1.00;1.00;;;;;18.29;100.00;99178.75;2088921;28;46687;-66
2023/10/25 01:21:56;;;;;;;;;0.00;0.00;;;;;18.18;100.00;99174.25;2086513;27;45963;-66
2023/10/25 01:22:56;;;;;;;;;1.00;1.00;;;;;18.26;100.00;99170.94;2071465;28;46305;-67
2023/10/25 01:23:56;;;;;;;;;0.67;0.67;;;;;18.25;100.00;99167.41;2071789;28;46287;-66
2023/10/25 01:24:57;;;;;;;;;1.00;1.00;;;;;18.25;100.00;99170.09;2063001;28;46727;-66
2023/10/25 01:25:57;;;;;;;;;1.33;0.33;;;;;18.23;100.00;99164.84;2067977;28;46025;-66
2023/10/25 01:26:57;;;;;;;;;3.00;1.67;;;;;18.22;100.00;99160.47;2087868;28;46379;-67
2023/10/25 01:27:58;;;;;;;;;0.00;0.00;;;;;18.21;100.00;99156.06;2112758;27;45568;-66
2023/10/25 01:28:59;;;;;;;;;0.00;0.00;;;;;18.21;100.00;99156.06;2105768;27;46539;-66
2023/10/25 01:29:59;;;;;;;;;1.00;1.00;;;;;18.22;100.00;99156.91;2063121;28;46676;-66
2023/10/25 01:30:59;;;;;;;;;1.00;1.00;;;;;18.22;100.00;99148.88;2061856;28;46429;-67
2023/10/25 01:32:00;;;;;;;;;0.00;0.00;;;;;18.25;100.00;99143.25;2068669;28;45416;-67
2023/10/25 01:33:01;;;;;;;;;0.33;0.33;;;;;18.21;100.00;99131.91;2058212;28;45960;-65
2023/10/25 01:34:01;;;;;;;;;0.00;0.00;;;;;18.09;100.00;99129.31;2106022;28;46273;-67
2023/10/25 01:35:02;;;;;;;;;1.00;0.67;;;;;18.05;100.00;99123.34;2080849;28;46738;-66
2023/10/25 01:36:03;;;;;;;;;0.00;0.00;;;;;18.08;100.00;99112.34;2062506;28;46864;-67
2023/10/25 01:37:03;;;;;;;;;1.00;1.00;;;;;18.08;100.00;99114.19;2080779;28;45558;-66
2023/10/25 01:38:03;;;;;;;;;0.00;0.00;;;;;18.10;100.00;99113.09;2074388;28;46387;-66
2023/10/25 01:39:04;;;;;;;;;1.00;1.00;;;;;18.12;100.00;99092.34;2106221;28;45231;-67
2023/10/25 01:40:05;;;;;;;;;0.00;0.00;;;;;18.14;100.00;99092.22;2097163;28;46297;-67
2023/10/25 01:41:06;;;;;;;;;0.00;0.00;;;;;18.14;100.00;99085.00;2092114;28;47865;-66
2023/10/25 01:42:07;;;;;;;;;0.00;0.00;;;;;18.14;100.00;99090.38;2082756;28;46710;-67
2023/10/25 01:43:07;;;;;;;;;0.00;0.00;;;;;18.14;100.00;99087.69;2084366;28;46657;-66
2023/10/25 01:44:07;;;;;;;;;0.00;0.00;;;;;18.07;100.00;99086.50;2103131;28;46885;-66
2023/10/25 01:45:08;;;;;;;;;0.00;0.00;;;;;18.13;100.00;99085.13;2100455;28;46378;-67
2023/10/25 01:46:08;;;;;;;;;0.00;0.00;;;;;18.02;100.00;99087.81;2087591;28;46311;-66
2023/10/25 01:47:09;;;;;;;;;0.00;0.00;;;;;18.09;100.00;99087.22;2063215;28;45981;-67
2023/10/25 01:48:09;;;;;;;;;0.00;0.00;;;;;18.07;100.00;99083.81;2080992;28;46363;-66
2023/10/25 01:49:09;;;;;;;;;0.00;0.00;;;;;18.10;100.00;99080.88;2067140;28;46013;-66
2023/10/25 01:50:10;;;;;;;;;1.00;1.00;;;;;18.09;100.00;99076.47;2067901;28;46265;-67
2023/10/25 01:51:10;;;;;;;;;0.00;0.00;;;;;18.06;100.00;99068.69;2082943;28;45946;-67
2023/10/25 01:52:10;;;;;;;;;0.33;0.33;;;;;18.10;100.00;99074.66;2103628;28;46631;-66
2023/10/25 01:53:11;;;;;;;;;0.00;0.00;;;;;18.09;100.00;99071.09;2081613;28;46904;-68
2023/10/25 01:54:11;;;;;;;;;0.00;0.00;;;;;18.09;100.00;99065.75;2066338;28;46307;-68
2023/10/25 01:55:12;;;;;;;;;0.00;0.00;;;;;18.11;100.00;99057.56;2063019;28;46646;-67
2023/10/25 01:56:12;;;;;;;;;1.00;0.00;;;;;18.10;100.00;99059.41;2075528;28;46758;-68
2023/10/25 01:57:12;;;;;;;;;0.00;0.00;;;;;17.96;100.00;99046.22;2066177;28;46537;-66
2023/10/25 01:58:13;;;;;;;;;0.00;0.00;;;;;18.03;100.00;99055.47;2081018;28;46705;-66
2023/10/25 01:59:13;;;;;;;;;0.33;0.33;;;;;17.95;100.00;99057.91;2080520;28;46543;-66
2023/10/25 02:00:14;;;;;;;;;0.00;0.00;;;;;18.01;100.00;99041.31;2092067;28;46701;-66
2023/10/25 02:01:14;;;;;;;;;0.00;0.00;;;;;17.97;100.00;99041.69;2100987;28;45763;-66
2023/10/25 02:02:15;;;;;;;;;0.00;0.00;;;;;17.99;100.00;99032.53;2099858;28;46388;-65
2023/10/25 02:03:15;;;;;;;;;0.00;0.00;;;;;18.03;100.00;99038.50;2105805;28;45647;-66
2023/10/25 02:04:15;;;;;;;;;0.00;0.00;;;;;18.03;100.00;99028.63;2103743;28;46784;-66
2023/10/25 02:05:16;;;;;;;;;0.33;0.00;;;;;17.95;100.00;99039.13;2101948;28;46454;-66
2023/10/25 02:06:16;;;;;;;;;0.00;0.00;;;;;18.03;100.00;99033.16;2066395;28;46255;-66
2023/10/25 02:07:16;;;;;;;;;0.00;0.00;;;;;17.85;100.00;99030.94;2086992;28;47383;-66
2023/10/25 02:08:16;;;;;;;;;0.00;0.00;;;;;17.94;100.00;99027.53;2105998;28;46024;-66
2023/10/25 02:09:18;;;;;;;;;1.00;0.50;;;;;17.97;100.00;99020.22;2103976;27;46343;-66
2023/10/25 02:10:20;;;;;;;;;1.00;0.00;;;;;17.98;100.00;99022.78;2089219;28;46361;-66
2023/10/25 02:11:20;;;;;;;;;0.00;0.00;;;;;18.00;100.00;99026.19;2063023;28;46986;-66
2023/10/25 02:12:20;;;;;;;;;0.00;0.00;;;;;18.00;100.00;99017.28;2080750;27;46853;-66
2023/10/25 02:13:21;;;;;;;;;0.00;0.00;;;;;17.99;100.00;99016.44;2067444;28;46282;-66
2023/10/25 02:14:21;;;;;;;;;0.00;0.00;;;;;17.97;100.00;99017.53;2104875;28;46470;-66
2023/10/25 02:15:22;;;;;;;;;0.00;0.00;;;;;17.88;100.00;99005.69;2099571;28;46178;-66
2023/10/25 02:16:23;;;;;;;;;0.00;0.00;;;;;17.94;100.00;99010.59;2094778;27;45535;-66
2023/10/25 02:17:23;;;;;;;;;0.00;0.00;;;;;17.81;100.00;99005.34;2101549;28;46520;-66
2023/10/25 02:18:23;;;;;;;;;1.00;1.00;;;;;17.89;100.00;98997.50;2103497;28;46217;-66
2023/10/25 02:19:24;;;;;;;;;2.00;0.33;;;;;17.87;100.00;98998.63;2106038;28;46613;-66
2023/10/25 02:20:24;;;;;;;;;0.67;0.67;;;;;17.80;100.00;99000.09;2080755;28;46599;-66
2023/10/25 02:21:25;;;;;;;;;0.00;0.00;;;;;17.82;100.00;98995.47;2072834;28;46710;-66
2023/10/25 02:22:26;;;;;;;;;0.25;0.25;;;;;17.81;100.00;98986.56;2071124;28;46596;-66
2023/10/25 02:23:27;;;;;;;;;0.00;0.00;;;;;17.72;100.00;98989.09;2073018;28;46245;-67
2023/10/25 02:24:27;;;;;;;;;1.00;0.33;;;;;17.81;100.00;98989.25;2071225;28;46862;-66
2023/10/25 02:25:27;;;;;;;;;0.00;0.00;;;;;17.81;100.00;98993.75;2072669;28;46281;-67
2023/10/25 02:26:28;;;;;;;;;0.00;0.00;;;;;17.84;100.00;98982.75;2078044;28;46688;-66
2023/10/25 02:27:28;;;;;;;;;0.00;0.00;;;;;17.86;100.00;98962.03;2069482;28;46623;-66
2023/10/25 02:28:28;;;;;;;;;0.00;0.00;;;;;17.87;100.00;98975.31;2068689;28;46547;-67
2023/10/25 02:29:31;;;;;;;;;0.00;0.00;;;;;18.04;100.00;98973.09;2063323;28;46812;-66
2023/10/25 02:30:31;;;;;;;;;0.75;0.00;;;;;18.07;100.00;98970.22;2071040;28;46812;-66
2023/10/25 02:31:36;;;;;;;;;1.00;0.00;;;;;17.90;100.00;98955.44;2082196;28;46468;-67
2023/10/25 02:32:36;;;;;;;;;0.00;0.00;;;;;17.90;100.00;98958.13;2077888;28;46753;-67
2023/10/25 02:33:37;;;;;;;;;2.00;0.67;;;;;17.89;100.00;98953.72;2072123;27;46384;-67
2023/10/25 02:34:38;;;;;;;;;0.00;0.00;;;;;17.86;100.00;98951.28;2076745;28;46853;-67
2023/10/25 02:35:38;;;;;;;;;0.67;0.67;;;;;17.83;100.00;98940.81;2077113;28;46678;-67
2023/10/25 02:36:38;;;;;;;;;0.00;0.00;;;;;17.80;100.00;98933.00;2110676;27;46051;-66
2023/10/25 02:37:39;;;;;;;;;0.00;0.00;;;;;17.79;100.00;98942.03;2108978;27;46201;-67
2023/10/25 02:38:39;;;;;;;;;0.00;0.00;;;;;17.77;100.00;98931.41;2071225;28;46713;-67
2023/10/25 02:39:42;;;;;;;;;0.00;0.00;;;;;17.77;100.00;98931.41;2067201;28;46344;-67
2023/10/25 02:40:42;;;;;;;;;0.00;0.00;;;;;17.80;100.00;98941.06;2085017;28;46299;-67
2023/10/25 02:41:43;;;;;;;;;0.00;0.00;;;;;17.83;100.00;98927.41;2069386;28;46208;-66
2023/10/25 02:42:46;;;;;;;;;1.33;0.33;;;;;17.81;100.00;98924.84;2074457;28;46331;-67
2023/10/25 02:43:47;;;;;;;;;0.00;0.00;;;;;17.84;100.00;98921.91;2079586;28;47403;-67
2023/10/25 02:44:47;;;;;;;;;0.00;0.00;;;;;17.83;100.00;98922.88;2078251;28;46876;-67
2023/10/25 02:45:47;;;;;;;;;0.00;0.00;;;;;17.81;100.00;98913.25;2087378;28;46705;-67
2023/10/25 02:46:48;;;;;;;;;0.00;0.00;;;;;17.74;100.00;98912.88;2072632;28;46302;-67
2023/10/25 02:47:48;;;;;;;;;0.00;0.00;;;;;17.79;100.00;98908.00;2082315;28;46565;-67
2023/10/25 02:48:52;;;;;;;;;0.00;0.00;;;;;17.80;100.00;98908.88;2075094;28;46891;-67
2023/10/25 02:49:52;;;;;;;;;0.00;0.00;;;;;17.87;100.00;98907.38;2054261;28;46502;-67
2023/10/25 02:50:52;;;;;;;;;0.00;0.00;;;;;17.89;100.00;98908.09;2084237;28;46406;-66
2023/10/25 02:51:53;;;;;;;;;0.00;0.00;;;;;17.87;100.00;98908.22;2075838;28;46175;-67
2023/10/25 02:52:53;;;;;;;;;0.00;0.00;;;;;17.93;100.00;98896.16;2076074;28;46549;-66
2023/10/25 02:53:54;;;;;;;;;0.00;0.00;;;;;17.88;100.00;98909.94;2084689;28;46252;-67
2023/10/25 02:54:55;;;;;;;;;0.00;0.00;;;;;17.84;100.00;98897.75;2068027;28;46371;-67
2023/10/25 02:56:07;;;;;;;;;0.00;0.00;;;;;17.92;100.00;98899.84;2105206;27;46451;-67
2023/10/25 02:57:07;;;;;;;;;0.00;0.00;;;;;17.82;100.00;98904.22;2103339;28;47029;-67
2023/10/25 02:58:07;;;;;;;;;0.00;0.00;;;;;17.91;100.00;98898.97;2104456;27;46449;-67
2023/10/25 02:59:08;;;;;;;;;0.00;0.00;;;;;17.87;100.00;98893.97;2102517;27;46846;-67
2023/10/25 03:00:10;;;;;;;;;0.00;0.00;;;;;17.80;100.00;98896.31;2084644;28;46782;-67
2023/10/25 03:01:20;;;;;;;;;0.00;0.00;;;;;17.98;100.00;98888.59;2091400;28;46356;-67
2023/10/25 03:02:21;;;;;;;;;0.00;0.00;;;;;17.94;100.00;98882.63;2054366;28;46907;-67
2023/10/25 03:03:33;;;;;;;;;0.00;0.00;;;;;17.97;100.00;98888.72;2080357;28;45682;-67
2023/10/25 03:04:34;;;;;;;;;1.00;0.25;;;;;17.95;100.00;98875.41;2103543;28;46875;-67
2023/10/25 03:05:34;;;;;;;;;1.00;0.67;;;;;17.98;100.00;98879.69;2074376;28;46765;-67
2023/10/25 03:06:34;;;;;;;;;0.00;0.00;;;;;17.96;100.00;98874.44;2102582;27;46930;-67
2023/10/25 03:07:35;;;;;;;;;0.00;0.00;;;;;17.97;100.00;98872.59;2095838;28;46475;-67
2023/10/25 03:08:35;;;;;;;;;0.00;0.00;;;;;17.98;100.00;98879.69;2062919;28;46914;-67
2023/10/25 03:09:36;;;;;;;;;0.00;0.00;;;;;17.93;100.00;98866.66;2072044;28;46565;-67
2023/10/25 03:10:37;;;;;;;;;1.00;1.00;;;;;17.93;100.00;98867.50;2070841;28;46279;-67
2023/10/25 03:11:37;;;;;;;;;0.00;0.00;;;;;17.96;100.00;98876.28;2072507;28;46156;-67
2023/10/25 03:12:37;;;;;;;;;0.00;0.00;;;;;17.93;100.00;98875.56;2072720;28;46793;-67
2023/10/25 03:13:37;;;;;;;;;0.00;0.00;;;;;17.98;100.00;98872.47;2070858;28;46295;-67
2023/10/25 03:14:38;;;;;;;;;0.00;0.00;;;;;17.98;100.00;98869.78;2068011;28;46592;-67
2023/10/25 03:15:38;;;;;;;;;0.00;0.00;;;;;17.99;100.00;98867.97;2062970;28;45238;-67
2023/10/25 03:16:38;;;;;;;;;0.00;0.00;;;;;18.00;100.00;98869.66;2072042;28;45587;-67
2023/10/25 03:17:39;;;;;;;;;1.67;0.00;;;;;18.00;100.00;98861.63;2065911;28;46590;-67
2023/10/25 03:18:39;;;;;;;;;0.00;0.00;;;;;17.98;100.00;98855.53;2071149;28;46903;-67
2023/10/25 03:19:39;;;;;;;;;0.00;0.00;;;;;17.98;100.00;98864.44;2072559;28;46603;-67
2023/10/25 03:20:40;;;;;;;;;1.00;1.00;;;;;17.98;100.00;98851.00;2082738;28;46462;-67
2023/10/25 03:21:40;;;;;;;;;0.00;0.00;;;;;18.02;100.00;98846.22;2072296;28;46332;-67
2023/10/25 03:22:40;;;;;;;;;0.00;0.00;;;;;18.05;100.00;98849.53;2072033;28;46358;-67
2023/10/25 03:23:41;;;;;;;;;0.00;0.00;;;;;18.04;100.00;98842.47;2055536;28;46690;-67
2023/10/25 03:24:41;;;;;;;;;0.00;0.00;;;;;18.02;100.00;98843.56;2067523;28;46379;-66
2023/10/25 03:25:41;;;;;;;;;0.33;0.33;;;;;17.99;100.00;98838.44;2072811;28;46171;-66
2023/10/25 03:26:42;;;;;;;;;0.00;0.00;;;;;17.98;100.00;98831.38;2078087;28;46183;-66
2023/10/25 03:27:42;;;;;;;;;0.00;0.00;;;;;18.01;100.00;98839.16;2073773;28;46241;-67
2023/10/25 03:28:42;;;;;;;;;0.00;0.00;;;;;18.01;100.00;98826.59;2062607;28;46802;-67
2023/10/25 03:29:43;;;;;;;;;0.00;0.00;;;;;17.97;100.00;98835.88;2061850;28;46509;-67
2023/10/25 03:30:43;;;;;;;;;2.00;0.67;;;;;18.02;100.00;98830.13;2081372;28;46287;-67
2023/10/25 03:31:44;;;;;;;;;0.00;0.00;;;;;18.02;100.00;98830.97;2081813;28;46477;-67
2023/10/25 03:32:45;;;;;;;;;2.00;1.00;;;;;18.00;100.00;98827.56;2070977;28;46410;-67
2023/10/25 03:33:45;;;;;;;;;1.50;0.00;;;;;17.99;100.00;98814.28;2070049;28;46179;-66
2023/10/25 03:34:45;;;;;;;;;0.00;0.00;;;;;18.00;100.00;98810.63;2064518;28;46230;-66
2023/10/25 03:35:53;;;;;;;;;1.00;0.67;;;;;17.98;100.00;98818.81;2069446;28;46270;-66
2023/10/25 03:36:53;;;;;;;;;1.00;1.00;;;;;17.94;100.00;98812.00;2069565;28;46995;-65
2023/10/25 03:37:53;;;;;;;;;0.00;0.00;;;;;17.91;100.00;98815.78;2071422;28;45484;-66
2023/10/25 03:38:54;;;;;;;;;1.00;0.00;;;;;17.93;100.00;98818.34;2076885;28;46374;-67
2023/10/25 03:39:54;;;;;;;;;0.33;0.33;;;;;17.92;100.00;98814.81;2068454;28;46687;-67
2023/10/25 03:41:21;;;;;;;;;0.00;0.00;;;;;18.01;100.00;98812.31;2104722;28;46192;-67
2023/10/25 03:42:21;;;;;;;;;0.50;0.50;;;;;18.02;100.00;98803.28;2054125;28;46606;-67
2023/10/25 03:43:21;;;;;;;;;0.00;0.00;;;;;18.01;100.00;98805.13;2045148;28;46132;-66
2023/10/25 03:44:21;;;;;;;;;0.00;0.00;;;;;18.03;100.00;98789.75;2045065;28;46226;-65
2023/10/25 03:45:22;;;;;;;;;0.00;0.00;;;;;18.02;100.00;98795.25;2044250;28;46989;-66
2023/10/25 03:46:22;;;;;;;;;1.00;1.00;;;;;18.00;100.00;98805.25;2045308;28;45566;-66
2023/10/25 03:47:22;;;;;;;;;1.00;1.00;;;;;18.03;100.00;98794.25;2037298;28;46165;-67
2023/10/25 03:48:23;;;;;;;;;0.00;0.00;;;;;18.01;100.00;98785.47;2044056;28;46488;-67
2023/10/25 03:49:23;;;;;;;;;0.00;0.00;;;;;18.04;100.00;98791.47;2037395;28;46654;-66
2023/10/25 03:50:25;;;;;;;;;2.67;1.67;;;;;18.05;100.00;98787.81;2044309;28;46764;-65
2023/10/25 03:51:25;;;;;;;;;0.75;0.75;;;;;18.05;100.00;98784.28;2045145;28;46309;-66
2023/10/25 03:52:25;;;;;;;;;0.00;0.00;;;;;18.08;100.00;98786.69;2045633;28;46205;-66
2023/10/25 03:53:26;;;;;;;;;0.00;0.00;;;;;18.07;100.00;98785.84;2045009;28;46158;-66
2023/10/25 03:54:26;;;;;;;;;0.67;0.67;;;;;18.06;100.00;98785.97;2045189;28;46788;-66
2023/10/25 03:55:27;;;;;;;;;0.00;0.00;;;;;18.05;100.00;98778.91;2045411;28;46359;-67
2023/10/25 03:56:27;;;;;;;;;0.67;0.67;;;;;18.07;100.00;98768.88;2045397;28;46238;-66
2023/10/25 03:57:28;;;;;;;;;0.00;0.00;;;;;18.07;100.00;98775.09;2039855;28;46388;-66
2023/10/25 03:58:28;;;;;;;;;1.67;1.00;;;;;18.04;100.00;98775.38;2043356;28;46580;-66
2023/10/25 03:59:29;;;;;;;;;0.00;0.00;;;;;18.07;100.00;98780.47;2045283;28;46426;-65
2023/10/25 04:00:29;;;;;;;;;0.00;0.00;;;;;18.09;100.00;98774.97;2045195;28;46328;-65
2023/10/25 04:01:29;;;;;;;;;1.00;0.00;;;;;18.01;100.00;98766.69;2043810;28;46606;-65
2023/10/25 04:02:30;;;;;;;;;0.33;0.33;;;;;17.97;100.00;98759.88;2045109;28;46536;-66
2023/10/25 04:03:30;;;;;;;;;0.00;0.00;;;;;18.07;100.00;98764.38;2039346;28;46648;-65
2023/10/25 04:04:30;;;;;;;;;0.00;0.00;;;;;18.08;100.00;98765.22;2045497;28;46655;-65
2023/10/25 04:05:31;;;;;;;;;1.00;1.00;;;;;18.11;100.00;98755.06;2042834;28;46874;-65
2023/10/25 04:06:31;;;;;;;;;0.00;0.00;;;;;18.13;100.00;98750.41;2037425;28;46357;-65
2023/10/25 04:07:32;;;;;;;;;0.00;0.00;;;;;18.12;100.00;98758.59;2045037;28;45651;-65
2023/10/25 04:08:32;;;;;;;;;1.33;0.00;;;;;18.14;100.00;98752.13;2045496;28;46489;-65
2023/10/25 04:09:32;;;;;;;;;0.00;0.00;;;;;18.15;100.00;98755.66;2045159;28;47311;-66
2023/10/25 04:10:33;;;;;;;;;0.00;0.00;;;;;18.14;100.00;98744.06;2045263;28;46739;-65
2023/10/25 04:11:33;;;;;;;;;0.00;0.00;;;;;18.13;100.00;98750.41;2045380;28;46607;-65
2023/10/25 04:12:33;;;;;;;;;0.00;0.00;;;;;18.15;100.00;98747.59;2037190;28;45975;-64
2023/10/25 04:13:34;;;;;;;;;0.00;0.00;;;;;18.15;100.00;98737.72;2037426;28;46779;-65
2023/10/25 04:14:34;;;;;;;;;0.00;0.00;;;;;18.17;100.00;98734.94;2043635;28;46512;-64
2023/10/25 04:15:35;;;;;;;;;1.33;0.33;;;;;18.18;100.00;98732.09;2045262;28;46383;-64
2023/10/25 04:16:35;;;;;;;;;0.00;0.00;;;;;18.19;100.00;98728.44;2045129;28;45913;-65
2023/10/25 04:17:36;;;;;;;;;0.00;0.00;;;;;18.16;100.00;98731.34;2044780;28;47182;-65
2023/10/25 04:18:37;;;;;;;;;0.00;0.00;;;;;18.16;100.00;98730.50;2045532;28;46559;-65
2023/10/25 04:19:38;;;;;;;;;1.00;0.25;;;;;18.16;100.00;98733.19;2047535;28;46223;-65
2023/10/25 04:20:38;;;;;;;;;0.00;0.00;;;;;18.13;100.00;98720.03;2060834;28;46423;-65
2023/10/25 04:21:38;;;;;;;;;0.00;0.00;;;;;18.15;100.00;98731.50;2062097;28;46919;-66
2023/10/25 04:22:39;;;;;;;;;2.00;1.00;;;;;18.13;100.00;98726.25;2062197;28;46623;-66
2023/10/25 04:23:39;;;;;;;;;0.00;0.00;;;;;18.14;100.00;98717.22;2062811;28;46667;-66
2023/10/25 04:24:40;;;;;;;;;0.00;0.00;;;;;18.15;100.00;98723.44;2061284;28;45911;-66
2023/10/25 04:25:40;;;;;;;;;0.00;0.00;;;;;18.14;100.00;98721.75;2061760;28;46727;-65
2023/10/25 04:26:40;;;;;;;;;1.00;1.00;;;;;17.93;100.00;98859.44;2062170;28;46508;-65
2023/10/25 04:27:41;;;;;;;;;1.00;1.00;;;;;18.03;100.00;98719.94;2071209;28;46245;-66
2023/10/25 04:28:42;;;;;;;;;2.00;0.00;;;;;18.00;100.00;98728.28;2062628;28;46252;-65
2023/10/25 04:29:43;;;;;;;;;0.25;0.25;;;;;18.03;100.00;98725.31;2102947;28;46415;-66
2023/10/25 04:30:45;;;;;;;;;1.00;0.00;;;;;18.03;100.00;98736.06;2099176;28;46763;-65
2023/10/25 04:31:45;;;;;;;;;0.00;0.00;;;;;18.07;100.00;98736.66;2060655;28;46861;-65
2023/10/25 04:32:46;;;;;;;;;0.00;0.00;;;;;18.14;100.00;98733.31;2062388;28;46764;-65
2023/10/25 04:33:47;;;;;;;;;0.33;0.00;;;;;18.14;100.00;98729.78;2064888;28;46926;-65
2023/10/25 04:34:47;;;;;;;;;0.00;0.00;;;;;18.16;100.00;98725.13;2055979;28;46812;-65
2023/10/25 04:35:48;;;;;;;;;1.00;1.00;;;;;18.17;100.00;98714.28;2067427;28;46949;-64
2023/10/25 04:36:48;;;;;;;;;0.00;0.00;;;;;18.20;100.00;98703.28;2065081;28;46695;-64
2023/10/25 04:37:48;;;;;;;;;1.00;0.67;;;;;18.21;100.00;98707.69;2073164;28;46003;-64
2023/10/25 04:38:49;;;;;;;;;0.00;0.00;;;;;18.25;100.00;98697.53;2068887;28;46194;-64
2023/10/25 04:39:49;;;;;;;;;0.67;0.67;;;;;18.22;100.00;98697.78;2066240;28;46228;-66
2023/10/25 04:40:53;;;;;;;;;0.00;0.00;;;;;18.25;100.00;98700.19;2073321;28;46956;-66
2023/10/25 04:41:53;;;;;;;;;0.00;0.00;;;;;18.27;100.00;98695.56;2071914;28;46590;-65
2023/10/25 04:42:54;;;;;;;;;0.00;0.00;;;;;18.30;100.00;98689.09;2071599;28;46548;-66